Time;durP1;ratioP1;P1;durP2;ratioP2;P2;SDS_P1;SDS_P2;PMS_P1;PMS_P2;Temp;Humidity;BMP_temperature;BMP_pressure;BME280_temperature;BME280_humidity;BME280_pressure;Samples;Min_cycle;Max_cycle;Signal;HPM_P1;HPM_P2
2021/12/08 00:02:08;;;;;;;;;;;;;;;2.75;90.03;98559.06;5050629;28;19920;-83
2021/12/08 00:04:33;;;;;;;;;;;;;;;2.84;90.07;98564.25;5044298;28;20042;-82
2021/12/08 00:06:58;;;;;;;;;;;;;;;2.86;90.56;98570.34;5050128;28;19991;-83
2021/12/08 00:09:34;;;;;;;;;;;;;;;2.76;89.95;98566.03;5048406;28;19952;-84
2021/12/08 00:14:43;;;;;;;;;;;;;;;2.73;90.39;98576.44;5037786;28;19927;-82
2021/12/08 00:17:09;;;;;;;;;;;;;;;2.78;89.90;98580.78;5048610;28;19917;-82
2021/12/08 00:19:34;;;;;;;;;;;;;;;2.79;89.83;98577.28;5049891;28;19986;-83
2021/12/08 00:22:00;;;;;;;;;;;;;;;2.82;90.21;98579.88;5049990;28;19916;-82
2021/12/08 00:24:25;;;;;;;;;;;;;;;2.75;89.84;98575.59;5040647;28;19928;-83
2021/12/08 00:26:53;;;;;;;;;;;;;;;2.77;89.65;98580.78;5050663;28;19912;-83
2021/12/08 00:29:19;;;;;;;;;;;;;;;2.78;88.88;98582.50;5049072;28;19974;-83
2021/12/08 00:31:46;;;;;;;;;;;;;;;2.79;89.28;98579.03;5032435;28;19921;-82
2021/12/08 00:34:12;;;;;;;;;;;;;;;2.85;89.42;98597.25;5046965;28;20357;-82
2021/12/08 00:36:47;;;;;;;;;;;;;;;2.84;89.06;98585.09;5029032;28;19920;-82
2021/12/08 00:39:13;;;;;;;;;;;;;;;2.86;89.25;98599.00;5044665;28;19920;-82
2021/12/08 00:41:39;;;;;;;;;;;;;;;3.00;88.67;98599.00;5029642;28;20448;-83
2021/12/08 00:44:05;;;;;;;;;;;;;;;2.94;88.93;98599.84;5038229;28;20310;-84
2021/12/08 00:46:30;;;;;;;;;;;;;;;2.95;88.46;98591.19;5029930;28;19921;-84
2021/12/08 00:48:56;;;;;;;;;;;;;;;3.03;88.29;98599.84;5029958;28;19946;-85
2021/12/08 00:51:21;;;;;;;;;;;;;;;2.89;89.22;98603.31;5044524;28;19921;-83
2021/12/08 00:53:47;;;;;;;;;;;;;;;2.87;89.21;98592.91;5049913;28;19919;-82
2021/12/08 00:56:13;;;;;;;;;;;;;;;2.89;88.34;98593.78;5028971;28;20012;-83
2021/12/08 00:58:38;;;;;;;;;;;;;;;2.97;88.39;98606.81;5029404;28;19917;-81
2021/12/08 01:01:05;;;;;;;;;;;;;;;3.12;87.92;98604.16;5029494;28;19925;-83
2021/12/08 01:03:30;;;;;;;;;;;;;;;3.01;87.16;98609.41;5029992;28;20398;-82
2021/12/08 01:05:56;;;;;;;;;;;;;;;3.18;87.04;98605.88;5044608;28;19924;-82
2021/12/08 01:08:23;;;;;;;;;;;;;;;3.06;86.96;98598.97;5048867;28;20051;-81
2021/12/08 01:10:51;;;;;;;;;;;;;;;3.09;86.94;98613.72;5048865;28;19921;-82
2021/12/08 01:13:17;;;;;;;;;;;;;;;3.08;86.58;98612.00;5049090;28;19920;-82
2021/12/08 01:15:47;;;;;;;;;;;;;;;3.14;86.35;98602.41;5034782;28;19921;-82
2021/12/08 01:18:13;;;;;;;;;;;;;;;3.16;86.15;98605.03;5029438;28;19917;-83
2021/12/08 01:20:38;;;;;;;;;;;;;;;3.08;86.07;98610.25;5028185;28;19921;-83
2021/12/08 01:23:04;;;;;;;;;;;;;;;3.10;86.87;98611.09;5032485;28;19966;-82
2021/12/08 01:25:29;;;;;;;;;;;;;;;3.00;86.63;98612.00;5036906;28;20411;-84
2021/12/08 01:27:55;;;;;;;;;;;;;;;3.15;86.16;98621.50;5028960;28;20390;-82
2021/12/08 01:30:20;;;;;;;;;;;;;;;3.14;85.38;98615.44;5045041;28;19975;-83
2021/12/08 01:32:46;;;;;;;;;;;;;;;2.98;86.42;98614.63;5049388;28;19919;-82
2021/12/08 01:35:11;;;;;;;;;;;;;;;3.00;85.39;98617.22;5039711;28;20359;-83
2021/12/08 01:37:37;;;;;;;;;;;;;;;3.09;85.75;98624.13;5029195;28;20015;-82
2021/12/08 01:40:04;;;;;;;;;;;;;;;3.07;85.78;98612.84;5032516;28;19916;-82
2021/12/08 01:42:35;;;;;;;;;;;;;;;3.24;85.36;98618.88;5048598;28;19913;-83
2021/12/08 01:47:44;;;;;;;;;;;;;;;3.20;86.51;98625.00;5048704;28;19920;-83
2021/12/08 01:50:10;;;;;;;;;;;;;;;3.21;86.21;98626.72;5044596;28;19917;-82
2021/12/08 01:52:35;;;;;;;;;;;;;;;3.10;85.74;98625.88;5028621;28;19913;-83
2021/12/08 01:55:01;;;;;;;;;;;;;;;3.09;85.54;98624.13;5035207;28;20011;-86
2021/12/08 01:57:27;;;;;;;;;;;;;;;3.05;85.51;98634.56;5048672;28;19966;-83
2021/12/08 01:59:52;;;;;;;;;;;;;;;3.07;85.75;98621.53;5048467;28;19912;-83
2021/12/08 02:02:17;;;;;;;;;;;;;;;3.21;84.91;98626.72;5046243;28;19979;-83
2021/12/08 02:04:43;;;;;;;;;;;;;;;3.13;84.50;98629.34;5034704;28;19952;-82
2021/12/08 02:07:09;;;;;;;;;;;;;;;3.02;84.89;98624.16;5045457;28;19924;-82
2021/12/08 02:09:34;;;;;;;;;;;;;;;2.99;84.47;98633.72;5034210;28;19996;-82
2021/12/08 02:11:59;;;;;;;;;;;;;;;3.13;84.53;98638.91;5046527;28;20039;-82
2021/12/08 02:14:25;;;;;;;;;;;;;;;3.18;85.52;98630.22;5047936;28;19960;-82
2021/12/08 02:16:52;;;;;;;;;;;;;;;3.01;84.35;98635.47;5046766;28;19923;-81
2021/12/08 02:19:17;;;;;;;;;;;;;;;3.19;84.65;98644.97;5037368;28;19925;-83
2021/12/08 02:21:43;;;;;;;;;;;;;;;3.18;83.50;98650.19;5027353;28;19917;-83
2021/12/08 02:24:13;;;;;;;;;;;;;;;3.15;83.65;98655.41;5028141;28;19982;-83
2021/12/08 02:26:40;;;;;;;;;;;;;;;3.15;84.03;98655.41;5028921;28;19967;-83
2021/12/08 02:29:09;;;;;;;;;;;;;;;3.23;83.11;98651.91;5028316;28;20055;-83
2021/12/08 02:47:55;;;;;;;;;;;;;;;3.25;82.99;98667.56;5046037;28;20310;-82
2021/12/08 02:50:23;;;;;;;;;;;;;;;3.26;82.03;98676.22;5044643;28;19921;-82
2021/12/08 02:52:48;;;;;;;;;;;;;;;3.18;82.32;98661.50;5027606;28;19913;-82
2021/12/08 02:55:14;;;;;;;;;;;;;;;3.19;82.77;98675.38;5027490;28;19917;-83
2021/12/08 02:57:39;;;;;;;;;;;;;;;3.31;82.11;98677.09;5027315;28;19924;-83
2021/12/08 03:00:07;;;;;;;;;;;;;;;3.25;81.76;98682.34;5028983;28;19913;-83
2021/12/08 03:02:32;;;;;;;;;;;;;;;3.27;81.54;98676.22;5048956;28;19924;-82
2021/12/08 03:04:57;;;;;;;;;;;;;;;3.19;80.92;98689.25;5047383;28;20402;-83
2021/12/08 03:07:23;;;;;;;;;;;;;;;3.27;80.82;98691.88;5047643;28;20691;-83
2021/12/08 03:09:49;;;;;;;;;;;;;;;3.36;79.31;98704.88;5045268;28;20446;-81
2021/12/08 03:12:14;;;;;;;;;;;;;;;3.31;79.88;98695.34;5042939;28;19924;-82
2021/12/08 03:14:40;;;;;;;;;;;;;;;3.42;80.14;98700.56;5026715;28;19913;-82
2021/12/08 03:17:06;;;;;;;;;;;;;;;3.37;80.08;98700.56;5027068;28;19917;-81
2021/12/08 03:19:32;;;;;;;;;;;;;;;3.36;79.99;98704.88;5026805;28;19956;-83
2021/12/08 03:21:58;;;;;;;;;;;;;;;3.56;79.64;98709.19;5042064;28;20440;-82
2021/12/08 03:24:28;;;;;;;;;;;;;;;3.39;78.87;98710.09;5045968;28;19923;-83
2021/12/08 03:30:11;;;;;;;;;;;;;;;3.34;79.04;98711.84;5046994;28;19917;-82
2021/12/08 03:32:26;;;;;;;;;;;;;;;3.58;78.57;98720.47;5032346;28;19924;-84
2021/12/08 03:34:52;;;;;;;;;;;;;;;3.56;78.99;98730.06;5051137;28;19912;-83
2021/12/08 03:37:27;;;;;;;;;;;;;;;3.52;79.35;98726.59;5050079;28;20390;-83
2021/12/08 03:39:53;;;;;;;;;;;;;;;3.48;77.56;98724.00;5051296;28;19916;-83
2021/12/08 03:42:21;;;;;;;;;;;;;;;3.47;77.88;98728.31;5031506;28;19939;-84
2021/12/08 03:44:48;;;;;;;;;;;;;;;3.44;77.11;98725.72;5030780;28;20002;-82
2021/12/08 03:47:17;;;;;;;;;;;;;;;3.47;77.37;98738.75;5030906;28;19913;-81
2021/12/08 03:49:47;;;;;;;;;;;;;;;3.57;77.81;98742.25;5041692;28;19921;-84
2021/12/08 03:52:13;;;;;;;;;;;;;;;3.61;77.77;98745.69;5050449;28;19925;-83
2021/12/08 03:54:38;;;;;;;;;;;;;;;3.51;77.44;98750.94;5051017;28;20357;-83
2021/12/08 03:57:04;;;;;;;;;;;;;;;3.69;76.25;98750.03;5038953;28;19916;-83
2021/12/08 03:59:30;;;;;;;;;;;;;;;3.54;76.11;98753.53;5030455;28;19925;-83
2021/12/08 04:01:55;;;;;;;;;;;;;;;3.73;76.66;98750.88;5032582;28;19925;-83
2021/12/08 04:04:25;;;;;;;;;;;;;;;3.59;76.33;98758.75;5030810;28;19928;-81
2021/12/08 04:06:52;;;;;;;;;;;;;;;3.59;76.26;98754.38;5039747;28;19921;-82
2021/12/08 04:09:36;;;;;;;;;;;;;;;3.73;76.09;98756.97;5042398;28;20745;-84
2021/12/08 04:12:02;;;;;;;;;;;;;;;3.66;75.19;98763.09;5045173;28;19916;-83
2021/12/08 04:14:30;;;;;;;;;;;;;;;3.63;75.43;98755.25;5048722;28;19925;-82
2021/12/08 04:16:59;;;;;;;;;;;;;;;3.71;75.02;98765.69;5040013;28;19948;-81
2021/12/08 04:19:25;;;;;;;;;;;;;;;3.68;73.92;98763.94;5030235;28;20737;-80
2021/12/08 04:21:52;;;;;;;;;;;;;;;3.65;73.64;98758.72;5029694;28;19928;-83
2021/12/08 04:24:18;;;;;;;;;;;;;;;3.76;73.05;98771.75;5029681;28;19921;-84
2021/12/08 04:26:50;;;;;;;;;;;;;;;3.75;73.09;98765.69;5037281;28;20717;-82
2021/12/08 04:29:17;;;;;;;;;;;;;;;3.79;72.60;98760.44;5042825;28;19921;-81
2021/12/08 04:31:44;;;;;;;;;;;;;;;3.82;72.59;98768.28;5040542;28;20061;-80
2021/12/08 04:34:15;;;;;;;;;;;;;;;3.86;71.59;98767.38;5049836;28;19935;-79
2021/12/08 04:36:44;;;;;;;;;;;;;;;3.86;70.96;98783.91;5042086;28;20383;-79
2021/12/08 04:39:15;;;;;;;;;;;;;;;3.94;71.30;98787.34;5029455;28;20058;-85
2021/12/08 04:41:46;;;;;;;;;;;;;;;3.99;71.56;98783.88;5028774;28;19932;-84
2021/12/08 04:47:03;;;;;;;;;;;;;;;4.16;70.62;98791.66;5034967;28;20318;-84
2021/12/08 04:52:25;;;;;;;;;;;;;;;3.97;69.78;98790.81;5029898;28;20375;-82
2021/12/08 05:08:42;;;;;;;;;;;;;;;4.07;69.81;98814.28;5045522;28;19921;-82
2021/12/08 05:11:13;;;;;;;;;;;;;;;4.13;69.24;98816.88;5029720;28;19921;-83
2021/12/08 05:13:40;;;;;;;;;;;;;;;4.12;69.38;98812.53;5029493;28;19917;-82
2021/12/08 05:16:06;;;;;;;;;;;;;;;4.15;69.39;98811.66;5030551;28;19952;-86
2021/12/08 05:18:34;;;;;;;;;;;;;;;4.28;68.91;98817.72;5049687;28;19923;-83
2021/12/08 05:21:08;;;;;;;;;;;;;;;4.19;69.29;98822.97;5042446;28;19916;-82
2021/12/08 05:23:36;;;;;;;;;;;;;;;4.03;69.20;98823.00;5048263;28;19978;-81
2021/12/08 05:26:05;;;;;;;;;;;;;;;4.02;69.00;98821.25;5048788;28;19940;-80
2021/12/08 05:28:31;;;;;;;;;;;;;;;4.07;68.50;98819.50;5048615;28;19923;-83
2021/12/08 05:30:58;;;;;;;;;;;;;;;4.08;69.10;98821.25;5030437;28;19921;-81
2021/12/08 05:33:24;;;;;;;;;;;;;;;4.14;69.29;98830.81;5040526;28;19948;-82
2021/12/08 05:35:51;;;;;;;;;;;;;;;4.17;68.60;98828.19;5035129;28;19921;-83
2021/12/08 05:38:17;;;;;;;;;;;;;;;4.15;67.89;98824.69;5030708;28;20594;-84
2021/12/08 05:41:03;;;;;;;;;;;;;;;4.11;68.51;98823.84;5028448;28;20402;-82
2021/12/08 05:43:29;;;;;;;;;;;;;;;4.18;68.12;98832.53;5030855;28;20003;-83
2021/12/08 05:45:54;;;;;;;;;;;;;;;4.13;67.60;98835.16;5034138;28;20023;-84
2021/12/08 05:48:20;;;;;;;;;;;;;;;4.35;68.39;98834.22;5026576;28;19917;-84
2021/12/08 05:50:51;;;;;;;;;;;;;;;4.24;67.95;98849.91;5032578;28;20322;-83
2021/12/08 05:53:16;;;;;;;;;;;;;;;4.24;68.23;98845.56;5028450;28;19917;-84
2021/12/08 05:55:42;;;;;;;;;;;;;;;4.35;67.89;98848.13;5028211;28;19913;-83
2021/12/08 05:58:08;;;;;;;;;;;;;;;4.19;67.97;98854.28;5030272;28;20019;-84
2021/12/08 06:00:38;;;;;;;;;;;;;;;4.26;67.97;98856.00;5046804;28;20015;-84
2021/12/08 06:03:04;;;;;;;;;;;;;;;4.20;66.87;98856.91;5028287;28;19987;-84
2021/12/08 06:05:29;;;;;;;;;;;;;;;4.22;67.68;98860.38;5028574;28;20443;-83
2021/12/08 06:07:55;;;;;;;;;;;;;;;4.37;67.54;98859.47;5029850;28;19927;-81
2021/12/08 06:10:24;;;;;;;;;;;;;;;4.26;67.53;98866.44;5029430;28;19927;-81
2021/12/08 06:12:50;;;;;;;;;;;;;;;4.37;67.24;98880.34;5023914;28;19971;-83
2021/12/08 06:15:16;;;;;;;;;;;;;;;4.37;66.78;98876.84;5027208;28;19943;-82
2021/12/08 06:17:41;;;;;;;;;;;;;;;4.33;67.03;98877.75;5026323;28;20395;-82
2021/12/08 06:20:08;;;;;;;;;;;;;;;4.40;67.41;98885.56;5027318;28;19913;-83
2021/12/08 06:22:34;;;;;;;;;;;;;;;4.48;67.45;98882.94;5027515;28;19921;-83
2021/12/08 06:24:59;;;;;;;;;;;;;;;4.32;66.58;98886.44;5030136;28;20701;-81
2021/12/08 06:27:25;;;;;;;;;;;;;;;4.39;66.73;98898.63;5027265;28;20652;-83
2021/12/08 06:29:50;;;;;;;;;;;;;;;4.46;67.20;98896.00;5026410;28;19939;-83
2021/12/08 06:32:16;;;;;;;;;;;;;;;4.51;66.79;98895.09;5030223;28;19916;-83
2021/12/08 06:34:43;;;;;;;;;;;;;;;4.52;65.91;98905.53;5047376;28;19966;-82
2021/12/08 06:37:13;;;;;;;;;;;;;;;4.60;66.01;98909.00;5046298;28;19920;-82
2021/12/08 06:39:41;;;;;;;;;;;;;;;4.66;66.85;98916.81;5047206;28;19916;-84
2021/12/08 06:42:09;;;;;;;;;;;;;;;4.68;65.94;98921.16;5032611;28;19952;-82
2021/12/08 06:44:36;;;;;;;;;;;;;;;4.65;65.47;98925.53;5027737;28;19924;-83
2021/12/08 06:47:03;;;;;;;;;;;;;;;4.58;65.91;98928.16;5028061;28;19916;-82
2021/12/08 06:49:28;;;;;;;;;;;;;;;4.82;66.22;98935.06;5027187;28;20307;-82
2021/12/08 06:51:57;;;;;;;;;;;;;;;4.66;64.95;98929.00;5027782;28;19928;-82
2021/12/08 06:54:44;;;;;;;;;;;;;;;4.83;65.93;98939.38;5027354;28;19917;-83
2021/12/08 06:57:17;;;;;;;;;;;;;;;4.71;66.19;98942.94;5027592;28;19921;-81
2021/12/08 06:59:55;;;;;;;;;;;;;;;4.80;65.66;98942.00;5027646;28;19917;-83
2021/12/08 07:02:48;;;;;;;;;;;;;;;4.89;65.48;98949.81;5027385;28;19960;-82
2021/12/08 07:05:13;;;;;;;;;;;;;;;4.86;65.21;98947.22;5027265;28;20008;-83
2021/12/08 07:07:40;;;;;;;;;;;;;;;4.98;65.67;98947.16;5026507;28;19921;-83
2021/12/08 07:10:06;;;;;;;;;;;;;;;4.88;65.79;98945.50;5027726;28;19917;-84
2021/12/08 07:12:37;;;;;;;;;;;;;;;4.92;65.82;98955.03;5027401;28;19959;-82
2021/12/08 07:15:15;;;;;;;;;;;;;;;5.05;64.93;98953.25;5027326;28;19913;-81
2021/12/08 07:17:43;;;;;;;;;;;;;;;5.19;65.42;98966.28;5027369;28;20008;-82
2021/12/08 07:20:18;;;;;;;;;;;;;;;5.17;65.50;98968.88;5027333;28;19912;-81
2021/12/08 07:22:46;;;;;;;;;;;;;;;5.11;64.47;98970.66;5027385;28;19917;-81
2021/12/08 07:25:12;;;;;;;;;;;;;;;5.09;65.26;98978.50;5027257;28;19959;-81
2021/12/08 07:27:38;;;;;;;;;;;;;;;5.13;63.80;98982.84;5026971;28;20024;-81
2021/12/08 07:30:09;;;;;;;;;;;;;;;5.28;64.18;98981.88;5027107;28;19992;-81
2021/12/08 07:32:36;;;;;;;;;;;;;;;5.36;64.56;98981.84;5026310;28;19948;-82
2021/12/08 07:35:03;;;;;;;;;;;;;;;5.42;63.39;98978.34;5027187;28;19917;-81
2021/12/08 07:37:32;;;;;;;;;;;;;;;5.53;65.50;98985.25;5026960;28;19913;-83
2021/12/08 07:40:09;;;;;;;;;;;;;;;5.47;64.34;98995.75;5027188;28;19921;-82
2021/12/08 07:42:37;;;;;;;;;;;;;;;5.42;63.55;98996.66;5035089;28;19927;-82
2021/12/08 07:45:06;;;;;;;;;;;;;;;5.44;62.78;98993.16;5028375;28;19948;-81
2021/12/08 07:47:31;;;;;;;;;;;;;;;5.55;63.57;98991.34;5027442;28;19913;-82
2021/12/08 07:49:59;;;;;;;;;;;;;;;5.60;63.24;99000.91;5027452;28;20740;-82
2021/12/08 07:52:33;;;;;;;;;;;;;;;5.59;63.14;98992.19;5026762;28;19917;-81
2021/12/08 07:55:00;;;;;;;;;;;;;;;5.60;63.87;98990.44;5026881;28;19928;-83
2021/12/08 07:57:33;;;;;;;;;;;;;;;5.68;63.28;98978.19;5026750;28;19917;-85
2021/12/08 08:00:00;;;;;;;;;;;;;;;5.81;63.21;98992.03;5027597;28;19921;-82
2021/12/08 08:02:26;;;;;;;;;;;;;;;5.88;63.32;98991.97;5025915;28;19916;-84
2021/12/08 08:04:53;;;;;;;;;;;;;;;5.69;63.83;98996.47;5027093;28;19975;-81
2021/12/08 08:07:19;;;;;;;;;;;;;;;5.99;63.81;98997.16;5026169;28;19928;-83
2021/12/08 08:09:46;;;;;;;;;;;;;;;6.02;62.52;99001.53;5026354;28;20288;-82
2021/12/08 08:12:15;;;;;;;;;;;;;;;6.12;62.56;98992.72;5026625;28;19960;-81
2021/12/08 08:14:42;;;;;;;;;;;;;;;6.08;63.27;99002.34;5025829;28;19919;-81
2021/12/08 08:17:13;;;;;;;;;;;;;;;6.23;63.79;99001.34;5026023;28;20381;-82
2021/12/08 08:19:44;;;;;;;;;;;;;;;6.18;63.17;99007.50;5028209;28;19917;-80
2021/12/08 08:22:11;;;;;;;;;;;;;;;6.25;62.20;98998.72;5030400;28;19956;-80
2021/12/08 08:24:37;;;;;;;;;;;;;;;6.12;62.88;99020.66;5030157;28;19917;-81
2021/12/08 08:27:04;;;;;;;;;;;;;;;6.22;62.26;99019.69;5030012;28;19917;-81
2021/12/08 08:29:29;;;;;;;;;;;;;;;6.05;61.81;99015.44;5030050;28;20706;-81
2021/12/08 08:32:01;;;;;;;;;;;;;;;6.06;63.07;99017.19;5029907;28;19995;-81
2021/12/08 08:34:33;;;;;;;;;;;;;;;6.21;63.49;99018.84;5030392;28;19917;-81
2021/12/08 08:36:59;;;;;;;;;;;;;;;6.13;61.67;99032.88;5029720;28;20385;-81
2021/12/08 08:39:27;;;;;;;;;;;;;;;5.94;62.52;99029.50;5030057;28;19924;-80
2021/12/08 08:41:57;;;;;;;;;;;;;;;5.78;62.21;99026.97;5029502;28;19928;-82
2021/12/08 08:44:25;;;;;;;;;;;;;;;5.90;62.85;99029.50;5030282;28;19917;-81
2021/12/08 08:46:52;;;;;;;;;;;;;;;5.97;62.38;99022.50;5029859;28;19945;-81
2021/12/08 08:49:20;;;;;;;;;;;;;;;5.79;62.84;99018.22;5029489;28;19921;-80
2021/12/08 08:51:51;;;;;;;;;;;;;;;6.08;63.17;99025.03;5028888;28;19924;-83
2021/12/08 08:54:22;;;;;;;;;;;;;;;6.69;62.85;99017.53;5028230;28;19948;-81
2021/12/08 08:56:55;;;;;;;;;;;;;;;6.40;62.16;99021.31;5028831;28;20310;-82
2021/12/08 08:59:25;;;;;;;;;;;;;;;6.56;62.24;99017.66;5029021;28;19913;-81
2021/12/08 09:01:52;;;;;;;;;;;;;;;6.37;62.20;99011.72;5028421;28;19924;-80
2021/12/08 09:04:30;;;;;;;;;;;;;;;6.23;61.61;99014.44;5029699;28;19956;-83
2021/12/08 09:07:02;;;;;;;;;;;;;;;6.39;63.04;99014.31;5027848;28;19956;-82
2021/12/08 09:09:28;;;;;;;;;;;;;;;6.41;62.72;99008.19;5028663;28;19921;-83
2021/12/08 09:11:56;;;;;;;;;;;;;;;6.33;62.40;99007.38;5029376;28;19947;-82
2021/12/08 09:14:24;;;;;;;;;;;;;;;6.37;62.04;99005.63;5028800;28;19917;-82
2021/12/08 09:17:05;;;;;;;;;;;;;;;6.53;63.33;98996.72;5028905;28;19963;-82
2021/12/08 09:19:35;;;;;;;;;;;;;;;6.77;63.39;98998.22;5028931;28;19920;-82
2021/12/08 09:22:01;;;;;;;;;;;;;;;6.82;62.63;98992.94;5029190;28;20414;-83
2021/12/08 09:24:56;;;;;;;;;;;;;;;6.81;63.71;99001.66;5028488;28;19921;-82
2021/12/08 09:27:25;;;;;;;;;;;;;;;6.96;63.30;98988.38;4992200;28;19956;-84
2021/12/08 09:29:56;;;;;;;;;;;;;;;6.92;62.96;99002.44;5028532;28;20015;-82
2021/12/08 09:32:30;;;;;;;;;;;;;;;7.08;61.82;99000.50;5028701;28;19921;-82
2021/12/08 09:34:58;;;;;;;;;;;;;;;6.66;62.16;98994.84;5029038;28;19924;-82
2021/12/08 09:37:26;;;;;;;;;;;;;;;6.88;63.31;98989.38;5028819;28;19992;-81
2021/12/08 09:39:54;;;;;;;;;;;;;;;7.06;62.23;98983.91;5028968;28;19924;-82
2021/12/08 09:42:24;;;;;;;;;;;;;;;6.95;62.40;98984.06;5028171;28;19979;-83
2021/12/08 09:44:52;;;;;;;;;;;;;;;7.02;62.04;98986.59;5028909;28;19913;-84
2021/12/08 09:47:18;;;;;;;;;;;;;;;6.55;62.88;98981.88;5028621;28;20483;-83
2021/12/08 09:49:47;;;;;;;;;;;;;;;6.34;62.11;98977.69;5028744;28;19921;-83
2021/12/08 09:52:14;;;;;;;;;;;;;;;6.28;62.74;98975.97;5028936;28;19913;-81
2021/12/08 09:54:40;;;;;;;;;;;;;;;6.44;61.77;98975.84;5028739;28;19987;-81
2021/12/08 09:57:10;;;;;;;;;;;;;;;6.33;61.94;98980.31;5028438;28;20319;-82
2021/12/08 09:59:40;;;;;;;;;;;;;;;6.47;62.43;98977.56;5028694;28;20014;-81
2021/12/08 10:02:08;;;;;;;;;;;;;;;6.59;62.31;98978.31;5028451;28;19916;-81
2021/12/08 10:04:33;;;;;;;;;;;;;;;6.63;62.46;98980.03;5028431;28;19917;-83
2021/12/08 10:07:00;;;;;;;;;;;;;;;6.55;62.51;98987.09;5028285;28;19917;-83
2021/12/08 10:09:25;;;;;;;;;;;;;;;6.84;63.40;98988.53;5028420;28;19923;-82
2021/12/08 10:11:54;;;;;;;;;;;;;;;6.95;62.79;98973.56;5028110;28;19917;-83
2021/12/08 10:14:19;;;;;;;;;;;;;;;7.06;62.01;98972.53;5028402;28;20358;-82
2021/12/08 10:16:45;;;;;;;;;;;;;;;7.23;61.82;98974.94;5027831;28;19945;-83
2021/12/08 10:19:13;;;;;;;;;;;;;;;7.14;61.63;98971.56;5026728;28;19952;-81
2021/12/08 10:21:40;;;;;;;;;;;;;;;7.21;63.11;98966.25;5027079;28;19909;-82
2021/12/08 10:24:25;;;;;;;;;;;;;;;7.44;61.54;98973.81;5027474;28;20693;-81
2021/12/08 10:26:52;;;;;;;;;;;;;;;7.26;63.16;98965.31;5026800;28;19916;-80
2021/12/08 10:29:23;;;;;;;;;;;;;;;7.37;62.05;98965.16;5027069;28;19935;-84
2021/12/08 10:31:48;;;;;;;;;;;;;;;7.23;61.48;98964.47;5027417;28;19916;-80
2021/12/08 10:34:23;;;;;;;;;;;;;;;7.26;61.72;98964.41;5027079;28;19915;-81
2021/12/08 10:36:50;;;;;;;;;;;;;;;7.24;61.34;98961.81;5027405;28;19917;-79
2021/12/08 10:39:16;;;;;;;;;;;;;;;7.56;62.01;98972.78;5027297;28;19913;-81
2021/12/08 10:41:47;;;;;;;;;;;;;;;7.46;61.12;98972.03;5026062;28;19979;-81
2021/12/08 10:44:12;;;;;;;;;;;;;;;7.49;61.79;98977.22;5025968;28;20341;-81
2021/12/08 10:46:38;;;;;;;;;;;;;;;7.69;60.50;98972.59;5026189;28;19913;-82
2021/12/08 10:49:12;;;;;;;;;;;;;;;7.77;61.53;98976.84;5026629;28;19928;-82
2021/12/08 10:54:30;;;;;;;;;;;;;;;7.36;60.75;98966.03;5026272;28;20006;-81
2021/12/08 10:56:57;;;;;;;;;;;;;;;7.37;59.76;98975.66;5026857;28;19917;-81
2021/12/08 10:59:24;;;;;;;;;;;;;;;7.41;59.75;98969.47;5026876;28;19917;-81
2021/12/08 11:01:50;;;;;;;;;;;;;;;7.81;60.58;98982.00;5026625;28;19917;-81
2021/12/08 11:04:16;;;;;;;;;;;;;;;7.49;60.62;98971.97;5026847;28;20310;-82
2021/12/08 11:06:42;;;;;;;;;;;;;;;7.43;58.90;98972.06;5025691;28;19921;-83
2021/12/08 11:09:15;;;;;;;;;;;;;;;7.35;58.73;98969.53;5027173;28;19924;-82
2021/12/08 11:11:43;;;;;;;;;;;;;;;7.36;59.05;98971.28;5026353;28;19917;-83
2021/12/08 11:14:10;;;;;;;;;;;;;;;7.38;60.15;98963.41;5026922;28;19923;-83
2021/12/08 11:16:38;;;;;;;;;;;;;;;7.67;59.28;98974.34;5026832;28;19920;-82
2021/12/08 11:19:10;;;;;;;;;;;;;;;7.82;58.95;98965.38;5026527;28;19917;-83
2021/12/08 11:21:41;;;;;;;;;;;;;;;7.63;60.22;98970.03;5026707;28;19924;-82
2021/12/08 11:24:14;;;;;;;;;;;;;;;7.68;60.17;98973.47;5026059;28;19916;-82
2021/12/08 11:26:43;;;;;;;;;;;;;;;7.82;58.62;98964.53;5026793;28;19917;-80
2021/12/08 11:29:08;;;;;;;;;;;;;;;7.67;60.04;98970.84;5027054;28;19917;-81
2021/12/08 11:31:34;;;;;;;;;;;;;;;7.63;59.22;98962.16;5026308;28;19923;-79
2021/12/08 11:34:01;;;;;;;;;;;;;;;7.76;58.51;98975.13;5025667;28;19917;-80
2021/12/08 11:36:29;;;;;;;;;;;;;;;7.85;58.71;98973.22;5025718;28;19917;-81
2021/12/08 11:38:54;;;;;;;;;;;;;;;7.93;59.63;98973.09;5026347;28;20311;-80
2021/12/08 11:41:25;;;;;;;;;;;;;;;7.82;59.38;98982.91;5025911;28;19921;-80
2021/12/08 11:43:55;;;;;;;;;;;;;;;7.95;59.22;98973.06;5026382;28;19913;-80
2021/12/08 11:46:21;;;;;;;;;;;;;;;8.19;60.17;98975.28;5025039;28;19913;-80
2021/12/08 11:49:07;;;;;;;;;;;;;;;8.13;58.86;98972.78;5026568;28;19921;-81
2021/12/08 11:51:42;;;;;;;;;;;;;;;8.32;58.73;98978.56;5026445;28;19923;-80
2021/12/08 11:54:08;;;;;;;;;;;;;;;8.08;59.23;98979.88;5028946;28;20074;-82
2021/12/08 11:56:38;;;;;;;;;;;;;;;8.09;58.23;98970.22;5030132;28;20011;-81
2021/12/08 11:59:05;;;;;;;;;;;;;;;7.95;58.97;98978.31;5029381;28;19924;-82
2021/12/08 12:01:31;;;;;;;;;;;;;;;7.89;57.88;98967.03;5029534;28;19982;-80
2021/12/08 12:03:56;;;;;;;;;;;;;;;7.78;57.40;98974.19;5030310;28;19917;-82
2021/12/08 12:06:27;;;;;;;;;;;;;;;7.85;57.82;98982.84;5029322;28;19990;-81
2021/12/08 12:08:54;;;;;;;;;;;;;;;8.07;57.70;98994.75;5030307;28;19920;-80
2021/12/08 12:11:22;;;;;;;;;;;;;;;8.06;57.82;98992.13;5028961;28;20390;-80
2021/12/08 12:13:48;;;;;;;;;;;;;;;7.93;56.72;98982.75;5030054;28;19920;-82
2021/12/08 12:16:13;;;;;;;;;;;;;;;7.96;57.30;98991.44;5028243;28;19920;-81
2021/12/08 12:18:38;;;;;;;;;;;;;;;8.05;56.98;98983.41;5034904;28;19916;-82
2021/12/08 12:21:24;;;;;;;;;;;;;;;8.12;57.65;98986.78;5040519;28;20075;-81
2021/12/08 12:24:04;;;;;;;;;;;;;;;8.21;57.36;98998.91;5052726;28;20306;-80
2021/12/08 12:26:34;;;;;;;;;;;;;;;8.30;57.71;98979.50;5038912;28;19916;-82
2021/12/08 12:29:02;;;;;;;;;;;;;;;8.25;56.85;98977.81;5038391;28;19912;-81
2021/12/08 12:31:39;;;;;;;;;;;;;;;8.17;57.02;98987.59;5037716;28;19916;-81
2021/12/08 12:34:20;;;;;;;;;;;;;;;8.43;57.72;98988.91;5031958;28;19959;-82
2021/12/08 12:36:45;;;;;;;;;;;;;;;8.21;56.08;99002.41;5037125;28;19917;-82
2021/12/08 12:39:15;;;;;;;;;;;;;;;8.15;57.77;98993.75;5036747;28;19916;-81
2021/12/08 12:41:41;;;;;;;;;;;;;;;8.11;57.74;99000.84;5032025;28;21479;-80
2021/12/08 12:44:13;;;;;;;;;;;;;;;7.96;56.97;99004.56;5038134;28;19927;-79
2021/12/08 12:46:38;;;;;;;;;;;;;;;8.22;56.84;99012.03;5039645;28;20397;-81
2021/12/08 12:49:22;;;;;;;;;;;;;;;8.04;56.43;99014.94;5038342;28;19917;-81
2021/12/08 12:51:58;;;;;;;;;;;;;;;7.90;56.58;99028.28;5034697;28;19921;-82
2021/12/08 12:54:24;;;;;;;;;;;;;;;8.04;55.77;99030.72;5038449;28;19916;-80
2021/12/08 12:56:51;;;;;;;;;;;;;;;7.97;55.99;99035.19;5039852;28;19944;-81
2021/12/08 12:59:20;;;;;;;;;;;;;;;7.99;56.58;99041.28;5035350;28;20003;-80
2021/12/08 13:01:47;;;;;;;;;;;;;;;8.12;56.27;99035.84;5037884;28;19916;-80
2021/12/08 13:04:19;;;;;;;;;;;;;;;7.97;55.91;99034.31;5038255;28;19953;-82
2021/12/08 13:07:00;;;;;;;;;;;;;;;7.89;55.97;99034.41;5043100;28;19958;-81
2021/12/08 13:09:39;;;;;;;;;;;;;;;7.87;55.52;99037.06;5032651;28;19921;-83
2021/12/08 13:12:06;;;;;;;;;;;;;;;7.84;56.06;99034.47;5029317;28;19916;-80
2021/12/08 13:14:31;;;;;;;;;;;;;;;8.09;56.52;99042.00;5032152;28;19913;-80
2021/12/08 13:17:11;;;;;;;;;;;;;;;8.13;56.40;99050.72;5030141;28;20391;-82
2021/12/08 13:19:41;;;;;;;;;;;;;;;7.94;56.36;99052.72;5030238;28;19939;-81
2021/12/08 13:22:06;;;;;;;;;;;;;;;7.95;55.85;99063.22;5030821;28;19970;-82
2021/12/08 13:24:36;;;;;;;;;;;;;;;7.81;55.52;99066.03;5038788;28;20370;-80
2021/12/08 13:27:04;;;;;;;;;;;;;;;7.87;56.34;99068.56;5037437;28;19920;-83
2021/12/08 13:29:32;;;;;;;;;;;;;;;7.75;56.41;99071.38;5038754;28;19916;-81
2021/12/08 13:32:10;;;;;;;;;;;;;;;7.82;56.53;99077.44;5036439;28;19917;-81
2021/12/08 13:34:36;;;;;;;;;;;;;;;7.76;56.05;99082.75;5036965;28;19921;-84
2021/12/08 13:37:15;;;;;;;;;;;;;;;7.82;56.80;99082.69;5032403;28;20606;-82
2021/12/08 13:39:42;;;;;;;;;;;;;;;7.81;56.78;99078.31;5028590;28;19925;-83
2021/12/08 13:42:17;;;;;;;;;;;;;;;7.63;56.44;99085.53;5030201;28;19921;-81
2021/12/08 13:44:50;;;;;;;;;;;;;;;7.68;57.89;99099.47;5027761;28;20281;-84
2021/12/08 13:47:35;;;;;;;;;;;;;;;7.59;57.34;99102.22;5026381;28;20031;-83
2021/12/08 13:50:04;;;;;;;;;;;;;;;7.83;57.50;99098.41;5034759;28;20305;-83
2021/12/08 13:52:30;;;;;;;;;;;;;;;7.83;57.92;99108.03;5046511;28;20682;-84